Time;durP1;ratioP1;P1;durP2;ratioP2;P2;SDS_P1;SDS_P2;PMS_P1;PMS_P2;Temp;Humidity;BMP_temperature;BMP_pressure;BME280_temperature;BME280_humidity;BME280_pressure;Samples;Min_cycle;Max_cycle;Signal;HPM_P1;HPM_P2
2021/11/07 00:05:06;;;;;;;11.80;6.30;;;;;;;5.74;75.23;100480.66;5033388;28;20128;-62
2021/11/07 00:07:47;;;;;;;13.85;6.68;;;;;;;5.77;75.33;100473.16;5033320;28;20048;-61
2021/11/07 00:10:22;;;;;;;14.15;6.88;;;;;;;5.77;75.21;100468.09;5033347;28;20083;-61
2021/11/07 00:13:04;;;;;;;13.20;6.60;;;;;;;5.75;74.89;100459.59;5036703;28;20038;-62
2021/11/07 00:15:37;;;;;;;12.10;5.72;;;;;;;5.75;75.69;100454.53;5037487;28;20053;-61
2021/11/07 00:18:12;;;;;;;12.30;6.68;;;;;;;5.84;75.33;100459.88;5037364;28;20041;-61
2021/11/07 00:20:51;;;;;;;13.32;6.13;;;;;;;5.92;75.22;100474.53;5037578;28;20046;-62
2021/11/07 00:23:44;;;;;;;;;;;;;;;5.96;75.14;100476.34;5037662;28;20045;-61
2021/11/07 00:26:24;;;;;;;11.98;6.10;;;;;;;5.99;75.19;100475.56;5037232;28;20019;-61
2021/11/07 00:29:00;;;;;;;;;;;;;;;5.99;75.07;100471.38;5037518;28;20053;-61
2021/11/07 00:31:36;;;;;;;12.27;5.95;;;;;;;6.04;75.13;100474.91;5025773;28;19956;-62
2021/11/07 00:37:00;;;;;;;13.10;6.50;;;;;;;6.05;74.72;100460.53;5008737;28;20069;-62
2021/11/07 00:39:37;;;;;;;13.30;6.50;;;;;;;6.04;74.69;100469.84;5017437;28;20522;-61
2021/11/07 00:42:14;;;;;;;13.77;6.40;;;;;;;6.07;74.81;100459.78;5017133;28;20054;-62
2021/11/07 00:44:50;;;;;;;11.55;6.40;;;;;;;6.13;75.15;100458.25;5017452;28;20051;-61
2021/11/07 00:47:36;;;;;;;14.68;6.10;;;;;;;6.11;75.31;100458.22;5017060;28;20046;-62
2021/11/07 00:50:09;;;;;;;11.23;5.53;;;;;;;6.11;75.25;100460.75;5016912;28;20038;-61
2021/11/07 00:52:52;;;;;;;12.77;6.07;;;;;;;6.03;75.54;100462.19;5017240;28;20410;-62
2021/11/07 00:55:31;;;;;;;11.85;6.28;;;;;;;5.96;75.26;100475.47;5016922;28;20491;-62
2021/11/07 00:58:08;;;;;;;8.82;5.10;;;;;;;5.99;75.71;100470.50;5017192;28;20104;-61
2021/11/07 01:00:48;;;;;;;12.43;6.43;;;;;;;5.95;75.59;100463.66;5016767;28;20054;-61
2021/11/07 01:03:22;;;;;;;11.07;5.78;;;;;;;6.04;75.70;100443.63;5016767;28;20050;-61
2021/11/07 01:05:55;;;;;;;10.82;5.45;;;;;;;6.04;75.76;100428.44;5016710;28;20080;-61
2021/11/07 01:08:28;;;;;;;14.88;5.85;;;;;;;6.12;75.19;100421.91;5016553;28;20050;-61
2021/11/07 01:11:00;;;;;;;11.73;5.72;;;;;;;6.13;75.28;100425.31;5016590;28;20077;-61
2021/11/07 01:13:35;;;;;;;10.20;5.47;;;;;;;6.15;75.01;100416.06;5016890;28;20507;-61
2021/11/07 01:16:08;;;;;;;12.73;6.53;;;;;;;6.20;75.39;100409.44;5016560;28;20050;-62
2021/11/07 01:18:40;;;;;;;12.32;6.13;;;;;;;6.24;74.96;100416.34;5016720;28;20041;-61
2021/11/07 01:21:14;;;;;;;13.68;6.35;;;;;;;6.16;74.99;100403.44;5016693;28;20484;-61
2021/11/07 01:23:54;;;;;;;11.80;6.10;;;;;;;6.29;74.77;100400.44;5015813;28;20073;-61
2021/11/07 01:26:26;;;;;;;12.57;6.45;;;;;;;6.31;74.70;100398.78;5016701;28;20057;-61
2021/11/07 01:29:06;;;;;;;12.52;7.00;;;;;;;6.35;74.62;100390.47;5016225;28;20046;-61
2021/11/07 01:31:36;;;;;;;10.65;6.13;;;;;;;6.29;74.00;100385.22;5015301;28;20057;-61
2021/11/07 01:34:15;;;;;;;12.88;7.00;;;;;;;6.29;74.68;100382.69;5016449;28;20124;-61
2021/11/07 01:36:47;;;;;;;14.32;7.13;;;;;;;6.30;74.40;100376.81;5016057;28;20046;-61
2021/11/07 01:39:23;;;;;;;13.23;6.13;;;;;;;6.29;74.07;100381.81;5016129;28;20046;-62
2021/11/07 01:42:04;;;;;;;11.80;6.20;;;;;;;6.29;74.41;100384.34;5016271;28;20408;-61
2021/11/07 01:44:48;;;;;;;10.55;6.28;;;;;;;6.29;74.27;100382.69;5016245;28;20052;-61
2021/11/07 01:47:18;;;;;;;11.35;6.13;;;;;;;6.33;73.94;100381.97;5016273;28;20049;-61
2021/11/07 01:49:51;;;;;;;10.65;6.63;;;;;;;6.32;74.21;100375.19;5016144;28;20567;-61
2021/11/07 01:52:22;;;;;;;12.20;5.93;;;;;;;6.31;74.41;100368.38;5016122;28;20046;-61
2021/11/07 01:54:58;;;;;;;14.65;6.32;;;;;;;6.29;74.47;100362.41;5016135;28;20080;-61
2021/11/07 01:57:29;;;;;;;11.27;5.70;;;;;;;6.27;74.68;100360.66;5015744;28;20056;-61
2021/11/07 02:00:09;;;;;;;9.35;6.47;;;;;;;6.29;74.85;100362.41;5015714;28;20069;-61
2021/11/07 02:02:41;;;;;;;12.47;6.33;;;;;;;6.28;75.17;100362.38;5015955;28;20377;-61
2021/11/07 02:05:13;;;;;;;11.02;6.35;;;;;;;6.36;74.81;100369.34;5015876;28;20197;-61
2021/11/07 02:07:46;;;;;;;11.70;5.85;;;;;;;6.42;74.52;100354.31;5015524;28;20050;-62
2021/11/07 02:10:20;;;;;;;12.45;5.45;;;;;;;6.44;74.59;100350.16;5015453;28;20042;-61
2021/11/07 02:12:52;;;;;;;9.55;5.55;;;;;;;6.29;74.22;100324.38;5015718;28;20042;-61
2021/11/07 02:15:26;;;;;;;14.23;5.38;;;;;;;6.38;74.32;100349.97;5015353;28;20045;-62
2021/11/07 02:18:02;;;;;;;9.13;4.85;;;;;;;6.34;74.67;100345.66;5015590;28;20129;-61
2021/11/07 02:20:39;;;;;;;9.75;4.90;;;;;;;6.39;74.05;100351.69;5015321;28;20096;-61
2021/11/07 02:23:17;;;;;;;10.48;4.60;;;;;;;6.38;74.45;100342.38;5015231;28;20041;-61
2021/11/07 02:25:53;;;;;;;9.02;4.60;;;;;;;6.37;74.10;100343.22;5015228;28;20045;-62
2021/11/07 02:28:27;;;;;;;8.63;4.05;;;;;;;6.36;74.64;100346.53;5015717;28;20053;-61
2021/11/07 02:31:01;;;;;;;7.65;4.25;;;;;;;6.27;74.38;100358.97;5014159;28;20132;-62
2021/11/07 02:33:31;;;;;;;10.63;4.95;;;;;;;6.32;74.49;100342.22;5014544;28;20129;-61
2021/11/07 02:36:06;;;;;;;;;;;;;;;6.32;74.54;100338.81;5015124;28;20125;-61
2021/11/07 02:38:39;;;;;;;10.88;4.63;;;;;;;6.20;74.54;100341.03;5014989;28;19921;-61
2021/11/07 02:41:10;;;;;;;8.88;4.05;;;;;;;5.97;75.13;100332.81;5014975;28;20041;-61
2021/11/07 02:43:44;;;;;;;11.15;4.80;;;;;;;5.83;75.31;100336.59;5015142;28;20081;-61
2021/11/07 02:46:17;;;;;;;8.30;4.55;;;;;;;5.81;75.67;100343.25;5014882;28;20054;-61
2021/11/07 02:48:51;;;;;;;9.38;4.65;;;;;;;5.78;75.97;100349.09;5015102;28;20052;-61
2021/11/07 02:51:27;;;;;;;8.60;4.93;;;;;;;5.81;76.12;100343.25;5015119;28;20072;-61
2021/11/07 02:54:04;;;;;;;12.70;6.40;;;;;;;5.81;75.87;100335.66;5014917;28;20053;-61
2021/11/07 02:56:34;;;;;;;12.43;6.60;;;;;;;5.64;76.96;100336.88;5014692;28;20107;-61
2021/11/07 02:59:09;;;;;;;14.07;6.72;;;;;;;5.45;77.10;100337.16;5014588;28;20401;-61
2021/11/07 03:01:41;;;;;;;14.23;7.18;;;;;;;5.35;77.52;100339.38;5014606;28;20065;-61
2021/11/07 03:04:14;;;;;;;14.20;7.30;;;;;;;5.45;78.05;100332.09;5014787;28;20081;-61
2021/11/07 03:06:45;;;;;;;14.50;8.45;;;;;;;5.66;78.20;100337.78;5015055;28;20042;-61
2021/11/07 03:09:17;;;;;;;13.50;7.55;;;;;;;5.80;77.98;100323.84;5014704;28;20045;-62
2021/11/07 03:11:47;;;;;;;15.82;7.43;;;;;;;5.78;77.83;100312.81;5014630;28;20380;-61
2021/11/07 03:14:21;;;;;;;14.27;7.45;;;;;;;5.68;77.94;100303.22;5014615;28;20427;-62
2021/11/07 03:16:51;;;;;;;15.95;7.65;;;;;;;5.71;77.49;100304.16;5014822;28;20539;-62
2021/11/07 03:19:25;;;;;;;12.65;6.35;;;;;;;5.81;77.85;100312.88;5014819;28;20163;-62
2021/11/07 03:21:58;;;;;;;12.20;6.45;;;;;;;5.93;77.72;100319.19;5014699;28;20050;-62
2021/11/07 03:24:30;;;;;;;15.77;7.80;;;;;;;6.02;77.20;100313.53;5014146;28;20042;-61
2021/11/07 03:27:10;;;;;;;12.35;7.05;;;;;;;6.08;77.72;100308.63;5014489;28;20116;-61
2021/11/07 03:29:44;;;;;;;12.70;6.63;;;;;;;6.14;77.99;100298.66;5014048;28;20096;-61
2021/11/07 03:32:18;;;;;;;9.40;5.45;;;;;;;6.22;77.30;100307.31;5014170;28;20140;-61
2021/11/07 03:34:50;;;;;;;10.23;5.57;;;;;;;6.25;77.29;100307.38;5014059;28;20049;-61
2021/11/07 03:37:26;;;;;;;9.63;4.97;;;;;;;6.14;76.86;100298.66;5014340;28;20038;-61
2021/11/07 03:40:01;;;;;;;8.80;4.63;;;;;;;6.14;76.86;100291.06;5014287;28;20121;-61
2021/11/07 03:42:33;;;;;;;11.23;5.00;;;;;;;6.23;76.98;100283.69;5014285;28;20132;-61
2021/11/07 03:45:07;;;;;;;7.97;4.55;;;;;;;6.28;76.54;100269.47;5013690;28;20072;-61
2021/11/07 03:47:39;;;;;;;8.60;4.68;;;;;;;6.35;76.45;100273.88;5014456;28;20368;-62
2021/11/07 03:50:12;;;;;;;10.10;5.15;;;;;;;6.42;76.55;100275.75;5013776;28;20084;-61
2021/11/07 03:52:46;;;;;;;12.82;5.90;;;;;;;6.45;75.85;100267.34;5014041;28;20046;-61
2021/11/07 03:55:18;;;;;;;10.27;5.85;;;;;;;6.43;75.97;100272.38;5013717;28;20042;-61
2021/11/07 03:57:48;;;;;;;12.13;6.38;;;;;;;6.42;75.84;100275.75;5013870;28;20049;-61
2021/11/07 04:00:22;;;;;;;9.73;6.07;;;;;;;6.41;75.48;100279.06;5014054;28;20116;-61
2021/11/07 04:02:54;;;;;;;10.15;5.10;;;;;;;6.46;75.36;100279.19;5013772;28;20100;-61
2021/11/07 04:05:24;;;;;;;10.32;5.53;;;;;;;6.51;75.33;100282.69;5014156;28;20392;-62
2021/11/07 04:07:57;;;;;;;12.02;5.93;;;;;;;6.44;74.83;100274.09;5013688;28;20066;-61
2021/11/07 04:10:30;;;;;;;11.35;5.57;;;;;;;6.51;74.62;100275.97;5013668;28;20484;-61
2021/11/07 04:13:00;;;;;;;11.35;5.53;;;;;;;6.40;74.93;100277.38;5013629;28;20042;-61
2021/11/07 04:15:33;;;;;;;10.70;5.10;;;;;;;6.38;74.58;100276.47;5013566;28;20030;-61
2021/11/07 04:18:06;;;;;;;11.18;5.07;;;;;;;6.40;74.67;100277.38;5013591;28;20042;-62
2021/11/07 04:20:39;;;;;;;12.68;5.20;;;;;;;6.37;74.43;100287.44;5013857;28;20403;-61
2021/11/07 04:23:12;;;;;;;10.23;5.13;;;;;;;6.31;74.80;100287.25;5013538;28;20046;-61
2021/11/07 04:25:45;;;;;;;10.05;5.40;;;;;;;6.27;74.33;100280.41;5013486;28;20042;-61
2021/11/07 04:28:14;;;;;;;13.73;7.15;;;;;;;6.28;74.56;100271.13;5013542;28;20064;-61
2021/11/07 04:30:47;;;;;;;11.52;6.75;;;;;;;6.27;74.16;100265.19;5013521;28;20058;-61
2021/11/07 04:33:19;;;;;;;12.57;6.80;;;;;;;6.29;74.60;100267.75;5013549;28;20054;-61
2021/11/07 04:35:52;;;;;;;11.18;5.90;;;;;;;6.29;74.07;100257.63;5013416;28;20046;-61
2021/11/07 04:38:27;;;;;;;9.30;5.78;;;;;;;6.40;73.87;100258.78;5013428;28;20046;-61
2021/11/07 04:41:00;;;;;;;11.88;5.93;;;;;;;6.39;74.29;100264.66;5013425;28;20092;-61
2021/11/07 04:43:29;;;;;;;11.63;5.78;;;;;;;6.42;74.27;100269.81;5013379;28;20042;-61
2021/11/07 04:45:58;;;;;;;;;;;;;;;6.41;73.61;100279.06;5013689;28;20057;-61
2021/11/07 04:48:28;;;;;;;11.05;5.55;;;;;;;6.34;74.26;100276.34;5013274;28;19952;-61
2021/11/07 04:50:57;;;;;;;9.60;4.78;;;;;;;6.33;73.79;100278.03;5013201;28;20046;-60
2021/11/07 04:53:31;;;;;;;13.13;5.90;;;;;;;6.27;74.07;100279.53;5013248;28;20056;-61
2021/11/07 04:56:00;;;;;;;9.85;5.20;;;;;;;6.28;74.08;100266.94;5013214;28;20093;-61
2021/11/07 04:58:33;;;;;;;10.52;5.30;;;;;;;6.22;74.34;100274.34;5016010;28;20054;-61
2021/11/07 05:01:06;;;;;;;12.13;5.78;;;;;;;6.18;74.48;100275.09;5017150;28;20046;-61
2021/11/07 05:03:39;;;;;;;9.57;5.47;;;;;;;6.14;74.73;100273.31;5017373;28;20100;-61
2021/11/07 05:06:15;;;;;;;10.07;5.03;;;;;;;6.18;74.14;100249.75;5016679;28;20496;-61
2021/11/07 05:08:49;;;;;;;11.80;5.43;;;;;;;6.21;74.41;100251.53;5017048;28;20054;-61
2021/11/07 05:11:21;;;;;;;11.30;5.47;;;;;;;6.14;74.70;100247.97;5016550;28;20069;-61
2021/11/07 05:13:53;;;;;;;9.82;5.13;;;;;;;6.09;74.72;100244.47;5016595;28;20096;-60
2021/11/07 05:16:23;;;;;;;9.80;4.95;;;;;;;6.06;75.12;100240.19;5016524;28;20108;-61
2021/11/07 05:18:55;;;;;;;11.98;5.55;;;;;;;6.13;75.17;100238.66;5016507;28;20096;-61
2021/11/07 05:21:25;;;;;;;10.65;5.43;;;;;;;6.08;74.98;100232.59;5016507;28;20574;-61
2021/11/07 05:24:04;;;;;;;9.20;4.95;;;;;;;6.03;75.09;100229.94;5016377;28;20463;-61
2021/11/07 05:26:33;;;;;;;10.40;5.05;;;;;;;5.53;75.25;100193.91;5016322;28;20500;-61
2021/11/07 05:29:06;;;;;;;9.05;5.00;;;;;;;5.85;75.99;100228.63;5016284;28;20045;-61
2021/11/07 05:31:36;;;;;;;10.38;5.25;;;;;;;5.96;76.15;100222.16;5015474;28;20050;-61
2021/11/07 05:34:09;;;;;;;10.65;5.68;;;;;;;6.00;75.89;100229.88;5016214;28;20092;-61
2021/11/07 05:36:41;;;;;;;10.32;4.85;;;;;;;6.09;75.56;100225.03;5016097;28;20057;-62
2021/11/07 05:39:15;;;;;;;10.07;4.97;;;;;;;6.12;75.40;100225.94;5016127;28;20046;-61
2021/11/07 05:41:44;;;;;;;8.82;4.97;;;;;;;6.03;75.84;100218.94;5015826;28;20100;-61
2021/11/07 05:44:14;;;;;;;9.93;5.57;;;;;;;5.99;75.92;100227.31;5014853;28;20046;-62
2021/11/07 05:46:43;;;;;;;11.45;5.72;;;;;;;6.06;76.43;100224.97;5015505;28;20046;-62
2021/11/07 05:49:13;;;;;;;9.07;5.45;;;;;;;6.17;76.20;100220.16;5016222;28;20045;-62
2021/11/07 05:51:43;;;;;;;9.43;5.68;;;;;;;6.20;75.90;100210.09;5015819;28;20096;-62
2021/11/07 05:54:16;;;;;;;8.13;4.82;;;;;;;6.26;75.85;100202.69;5016123;28;20394;-62
2021/11/07 05:56:46;;;;;;;9.45;5.45;;;;;;;6.25;75.54;100185.75;5015768;28;20042;-62
2021/11/07 05:59:15;;;;;;;10.00;5.00;;;;;;;6.28;75.50;100190.88;5015683;28;20052;-62
2021/11/07 06:01:45;;;;;;;10.00;5.20;;;;;;;6.32;75.63;100186.72;5015933;28;20523;-62
2021/11/07 06:04:17;;;;;;;9.82;5.38;;;;;;;6.32;75.74;100192.66;5015938;28;20554;-62
2021/11/07 06:06:47;;;;;;;8.93;4.70;;;;;;;6.27;75.88;100189.16;5015851;28;20160;-62
2021/11/07 06:09:20;;;;;;;12.95;5.43;;;;;;;6.26;75.49;100182.41;5015451;28;20085;-62
2021/11/07 06:11:50;;;;;;;8.02;4.55;;;;;;;6.31;75.81;100185.88;5015372;28;20137;-61
2021/11/07 06:14:23;;;;;;;8.77;5.22;;;;;;;6.29;75.57;100182.44;5015429;28;20129;-61
2021/11/07 06:16:56;;;;;;;9.40;5.60;;;;;;;6.17;75.73;100169.47;5015336;28;20092;-62
2021/11/07 06:19:29;;;;;;;9.70;4.60;;;;;;;6.21;75.67;100168.75;5015727;28;20069;-61
2021/11/07 06:21:58;;;;;;;10.43;5.25;;;;;;;6.18;75.69;100170.34;5015264;28;20144;-61
2021/11/07 06:24:29;;;;;;;12.25;5.53;;;;;;;6.11;75.58;100156.66;5015210;28;20061;-61
2021/11/07 06:27:04;;;;;;;10.93;5.65;;;;;;;6.16;75.97;100150.03;5015267;28;20050;-61
2021/11/07 06:29:39;;;;;;;9.60;4.88;;;;;;;6.12;75.58;100143.16;5015468;28;20049;-61
2021/11/07 06:32:09;;;;;;;10.52;5.18;;;;;;;6.19;75.87;100141.66;5014613;28;20046;-61
2021/11/07 06:34:41;;;;;;;12.25;5.53;;;;;;;6.06;76.09;100118.56;5015305;28;20058;-61
2021/11/07 06:37:12;;;;;;;10.10;5.22;;;;;;;6.28;76.27;100150.34;5015054;28;20484;-61
2021/11/07 06:39:46;;;;;;;9.77;5.63;;;;;;;6.36;76.19;100156.41;4997582;28;20042;-62
2021/11/07 06:42:16;;;;;;;10.38;5.75;;;;;;;6.45;76.26;100166.81;5015182;28;20415;-61
2021/11/07 06:44:49;;;;;;;11.48;6.20;;;;;;;6.55;76.29;100161.09;5014903;28;20038;-61
2021/11/07 06:47:18;;;;;;;12.68;6.93;;;;;;;6.56;75.97;100157.75;5015132;28;20380;-62
2021/11/07 06:49:51;;;;;;;11.40;6.55;;;;;;;6.56;76.27;100157.75;5014813;28;20050;-61
2021/11/07 06:52:21;;;;;;;12.15;6.38;;;;;;;6.55;76.13;100150.13;5014699;28;20100;-61
2021/11/07 06:54:55;;;;;;;11.23;6.00;;;;;;;6.48;76.41;100128.81;5015255;28;20041;-61
2021/11/07 06:57:26;;;;;;;12.05;5.63;;;;;;;6.65;76.00;100147.81;5015076;28;20133;-61
2021/11/07 06:59:59;;;;;;;10.45;5.85;;;;;;;6.69;76.30;100154.66;5014890;28;20484;-62
2021/11/07 07:02:31;;;;;;;10.10;5.72;;;;;;;6.66;76.65;100164.75;4997405;28;20472;-61
2021/11/07 07:05:04;;;;;;;9.20;5.20;;;;;;;6.67;76.42;100161.38;5014466;28;20050;-61
2021/11/07 07:07:45;;;;;;;11.45;5.30;;;;;;;6.71;77.03;100162.31;5014870;28;20120;-62
2021/11/07 07:10:23;;;;;;;10.52;5.45;;;;;;;6.82;76.49;100140.56;5014439;28;20072;-61
2021/11/07 07:13:01;;;;;;;11.35;5.35;;;;;;;6.90;76.27;100128.06;5014355;28;20126;-61
2021/11/07 07:15:33;;;;;;;12.23;5.80;;;;;;;6.97;75.44;100129.88;5014313;28;20137;-61
2021/11/07 07:18:15;;;;;;;11.02;6.15;;;;;;;7.06;76.03;100130.94;5014313;28;20127;-61
2021/11/07 07:20:55;;;;;;;8.77;4.90;;;;;;;7.09;75.79;100136.06;5013841;28;20073;-61
2021/11/07 07:26:20;;;;;;;10.07;5.45;;;;;;;7.23;75.08;100143.97;5013806;28;20052;-62
2021/11/07 07:29:21;;;;;;;;;;;;;;;7.38;74.34;100146.81;5014810;28;20076;-61
2021/11/07 07:32:00;;;;;;;10.38;5.00;;;;;;;7.36;74.32;100145.94;5013719;28;19980;-61
2021/11/07 07:34:32;;;;;;;9.50;5.40;;;;;;;7.26;74.63;100154.19;5013829;28;20046;-61
2021/11/07 07:37:03;;;;;;;11.35;5.88;;;;;;;7.33;74.95;100151.81;5014022;28;20134;-61
2021/11/07 07:39:35;;;;;;;13.40;6.93;;;;;;;7.30;74.44;100150.88;5013929;28;20046;-61
2021/11/07 07:42:07;;;;;;;12.00;6.05;;;;;;;7.41;74.37;100144.34;5014026;28;20451;-61
2021/11/07 07:44:39;;;;;;;10.48;6.13;;;;;;;7.48;74.72;100135.16;5013893;28;20045;-61
2021/11/07 07:47:09;;;;;;;13.13;5.60;;;;;;;7.55;73.88;100132.75;5013877;28;20053;-62
2021/11/07 07:49:42;;;;;;;10.23;6.35;;;;;;;7.54;74.48;100131.03;5013883;28;20037;-61
2021/11/07 07:52:12;;;;;;;25.45;16.40;;;;;;;7.59;73.83;100126.88;5013727;28;20046;-62
2021/11/07 07:54:44;;;;;;;14.43;6.65;;;;;;;7.42;74.40;100130.78;5013773;28;20054;-61
2021/11/07 07:57:18;;;;;;;17.13;8.23;;;;;;;7.52;74.03;100136.91;5013992;28;20050;-61
2021/11/07 07:59:54;;;;;;;13.57;7.03;;;;;;;7.72;73.35;100131.38;5013748;28;20050;-61
2021/11/07 08:02:27;;;;;;;12.38;7.80;;;;;;;7.76;73.43;100128.06;5013824;28;20042;-62
2021/11/07 08:05:00;;;;;;;12.95;8.57;;;;;;;7.65;74.03;100095.69;5013678;28;20554;-61
2021/11/07 08:07:29;;;;;;;11.77;6.70;;;;;;;7.81;73.40;100115.44;5014007;28;20057;-62
2021/11/07 08:10:02;;;;;;;24.23;15.43;;;;;;;7.87;74.04;100105.38;5013623;28;20574;-62
2021/11/07 08:12:37;;;;;;;19.17;11.95;;;;;;;7.97;73.27;100120.78;5013818;28;20088;-62
2021/11/07 08:15:08;;;;;;;17.60;8.30;;;;;;;8.09;73.60;100123.53;5013526;28;20046;-61
2021/11/07 08:17:37;;;;;;;12.65;7.32;;;;;;;8.23;73.42;100125.47;5013174;28;20050;-62
2021/11/07 08:20:10;;;;;;;;;;;;;;;8.23;73.14;100111.03;5014192;28;20042;-62
2021/11/07 08:22:43;;;;;;;10.73;5.70;;;;;;;8.22;72.68;100108.47;5013789;28;19922;-61
2021/11/07 08:25:19;;;;;;;10.98;6.18;;;;;;;8.35;73.11;100100.25;5013444;28;20042;-62
2021/11/07 08:27:52;;;;;;;9.43;5.47;;;;;;;8.50;73.08;100098.78;5013770;28;20141;-62
2021/11/07 08:30:25;;;;;;;13.20;7.50;;;;;;;8.41;72.95;100090.16;4995720;28;20104;-62
2021/11/07 08:32:55;;;;;;;10.35;5.30;;;;;;;8.39;72.71;100086.72;5014683;28;20077;-61
2021/11/07 08:35:25;;;;;;;11.02;5.70;;;;;;;8.60;72.48;100069.22;5017472;28;20136;-62
2021/11/07 08:37:58;;;;;;;9.95;4.93;;;;;;;8.76;72.18;100073.66;5017159;28;20038;-61
2021/11/07 08:40:31;;;;;;;9.32;4.82;;;;;;;8.59;72.65;100040.38;5017086;28;20132;-62
2021/11/07 08:43:05;;;;;;;10.45;5.25;;;;;;;9.09;72.15;100069.00;5017397;28;20037;-61
2021/11/07 09:01:44;;;;;;;10.57;5.55;;;;;;;10.25;69.27;100051.38;5016193;28;20073;-62
2021/11/07 09:04:23;;;;;;;9.50;5.57;;;;;;;10.35;68.80;100058.25;5017160;28;20060;-61
2021/11/07 09:07:11;;;;;;;8.48;5.15;;;;;;;10.28;68.77;100056.50;5017074;28;20045;-62
2021/11/07 09:09:42;;;;;;;12.10;6.15;;;;;;;10.18;68.95;100054.72;5017038;28;20037;-61
2021/11/07 09:12:12;;;;;;;9.85;5.32;;;;;;;10.33;69.09;100054.84;5016274;28;20046;-62
2021/11/07 09:14:44;;;;;;;13.60;6.13;;;;;;;10.32;68.71;100063.31;5017021;28;20100;-62
2021/11/07 09:17:16;;;;;;;12.45;6.13;;;;;;;10.40;68.70;100056.56;5016581;28;20104;-61
2021/11/07 09:19:49;;;;;;;10.57;6.15;;;;;;;10.44;69.14;100053.19;5016500;28;20042;-61
2021/11/07 09:22:41;;;;;;;12.05;6.20;;;;;;;10.43;68.56;100055.75;4994971;28;20125;-61
2021/11/07 09:25:16;;;;;;;12.70;6.13;;;;;;;10.27;68.44;100049.69;4994868;28;20050;-61
2021/11/07 09:27:48;;;;;;;10.38;5.72;;;;;;;10.43;68.61;100041.28;4994679;28;20080;-61
2021/11/07 09:30:26;;;;;;;11.95;6.38;;;;;;;10.66;68.20;100039.69;4980717;28;20057;-62
2021/11/07 09:33:06;;;;;;;12.63;6.50;;;;;;;10.72;67.95;100028.66;4974375;28;20047;-62
2021/11/07 09:35:44;;;;;;;11.77;6.07;;;;;;;10.82;67.41;100035.53;4975424;28;20157;-61
2021/11/07 09:38:19;;;;;;;11.90;6.63;;;;;;;10.91;67.33;100030.44;4959200;28;20580;-61
2021/11/07 09:41:06;;;;;;;11.07;6.03;;;;;;;11.09;67.23;100024.53;4974872;28;20292;-61
2021/11/07 09:43:45;;;;;;;11.40;6.43;;;;;;;11.42;66.58;100025.44;4974175;28;20505;-61
2021/11/07 09:49:14;;;;;;;13.18;6.05;;;;;;;11.96;65.08;100029.78;4996340;28;20507;-62
2021/11/07 09:51:54;;;;;;;11.52;5.80;;;;;;;12.15;63.92;100024.63;4996280;28;20054;-62
2021/11/07 09:54:26;;;;;;;10.73;5.35;;;;;;;12.22;63.35;100026.31;4996041;28;20134;-62
2021/11/07 09:57:01;;;;;;;11.73;6.03;;;;;;;12.24;63.43;100014.38;4996538;28;20141;-62
2021/11/07 09:59:31;;;;;;;12.35;6.18;;;;;;;12.32;63.03;100012.66;4996160;28;20054;-61
2021/11/07 10:02:03;;;;;;;12.15;6.18;;;;;;;12.26;62.69;100017.78;4996004;28;20525;-61
2021/11/07 10:04:36;;;;;;;10.50;6.28;;;;;;;12.20;63.00;100022.91;4996035;28;20038;-62
2021/11/07 10:07:18;;;;;;;10.57;5.78;;;;;;;12.04;63.07;100025.47;4996149;28;20491;-61
2021/11/07 10:09:52;;;;;;;10.70;6.15;;;;;;;11.90;63.13;100004.19;4995971;28;20082;-62
2021/11/07 10:12:31;;;;;;;10.63;5.75;;;;;;;11.73;63.80;99980.34;4995728;28;20057;-61
2021/11/07 10:15:01;;;;;;;12.95;6.32;;;;;;;11.67;64.52;99990.53;4995926;28;20086;-61
2021/11/07 10:17:37;;;;;;;12.27;7.13;;;;;;;11.62;64.64;99987.13;4995859;28;20132;-61
2021/11/07 10:20:17;;;;;;;12.40;6.63;;;;;;;11.69;65.14;99988.84;4996300;28;20454;-62
2021/11/07 10:22:51;;;;;;;11.73;7.07;;;;;;;11.77;64.91;99983.75;4978622;28;20160;-61
2021/11/07 10:25:24;;;;;;;11.02;6.15;;;;;;;12.03;64.94;99982.84;4995671;28;20501;-62
2021/11/07 10:27:57;;;;;;;12.10;6.68;;;;;;;12.00;63.87;99934.25;4995388;28;20042;-61
2021/11/07 10:30:29;;;;;;;14.27;7.45;;;;;;;12.38;63.59;99981.94;4995290;28;20101;-61
2021/11/07 10:33:08;;;;;;;11.02;6.60;;;;;;;12.23;63.11;99974.28;4995372;28;20474;-61
2021/11/07 10:47:17;;;;;;;11.50;7.03;;;;;;;12.69;62.31;99955.34;4975336;28;20054;-61
2021/11/07 10:52:33;;;;;;;11.32;6.50;;;;;;;12.74;61.57;99946.75;4995279;28;20499;-61
2021/11/07 10:55:04;;;;;;;11.15;6.47;;;;;;;13.07;61.47;99945.75;4994309;28;20077;-61
2021/11/07 10:57:44;;;;;;;10.13;5.95;;;;;;;13.41;61.09;99926.69;4994808;28;20050;-62
2021/11/07 11:00:24;;;;;;;9.93;5.85;;;;;;;13.10;60.50;99899.59;4995068;28;20496;-62
2021/11/07 11:02:57;;;;;;;11.93;6.85;;;;;;;12.60;60.66;99924.63;4995019;28;20054;-61
2021/11/07 11:05:40;;;;;;;10.55;6.80;;;;;;;12.15;61.82;99917.16;4994952;28;20108;-61
2021/11/07 11:08:16;;;;;;;11.90;6.68;;;;;;;11.99;62.54;99912.09;4994958;28;20164;-61
2021/11/07 11:10:56;;;;;;;12.50;7.43;;;;;;;12.18;62.82;99901.78;4995101;28;20380;-61
2021/11/07 11:13:39;;;;;;;;;;;;;;;12.50;62.42;99894.84;4995461;28;20049;-61
2021/11/07 11:22:06;;;;;;;10.95;6.68;;;;;;;13.10;60.48;99885.94;4994984;28;20117;-61
2021/11/07 11:24:52;;;;;;;11.10;5.68;;;;;;;13.15;60.21;99887.59;4995036;28;20088;-61
2021/11/07 11:33:09;;;;;;;9.20;5.57;;;;;;;13.66;58.77;99870.03;4948682;28;20061;-61
2021/11/07 11:35:46;;;;;;;10.50;5.50;;;;;;;13.52;58.15;99865.06;4955690;29;20057;-61
2021/11/07 11:38:24;;;;;;;10.07;5.80;;;;;;;13.75;58.18;99862.28;4956066;29;20515;-61
2021/11/07 11:41:01;;;;;;;8.80;5.82;;;;;;;13.71;58.20;99837.50;4955974;28;20043;-61
2021/11/07 11:43:34;;;;;;;13.88;6.15;;;;;;;13.68;57.89;99848.63;4955152;29;20559;-61
2021/11/07 11:46:15;;;;;;;9.70;5.78;;;;;;;13.48;58.51;99844.59;4955686;28;20133;-61
2021/11/07 11:54:55;;;;;;;10.73;6.38;;;;;;;13.37;58.35;99842.97;4951361;29;20098;-60
2021/11/07 11:57:32;;;;;;;13.20;6.75;;;;;;;13.42;58.38;99845.50;4956083;29;20497;-61
2021/11/07 12:03:08;;;;;;;10.13;5.95;;;;;;;13.39;58.41;99825.84;4951588;29;20053;-60
2021/11/07 12:05:44;;;;;;;9.10;5.53;;;;;;;13.29;57.43;99800.34;4953261;29;20102;-61
2021/11/07 12:08:26;;;;;;;9.38;5.55;;;;;;;12.96;58.11;99747.66;4960182;28;20207;-61
2021/11/07 12:11:21;;;;;;;9.35;6.25;;;;;;;13.53;57.90;99817.19;4959627;29;20049;-61
2021/11/07 12:14:04;;;;;;;8.77;6.00;;;;;;;13.66;58.13;99811.06;4959799;28;20053;-61
2021/11/07 12:16:52;;;;;;;10.38;5.85;;;;;;;13.64;57.56;99810.22;4959721;28;20050;-60
2021/11/07 12:19:24;;;;;;;8.82;5.15;;;;;;;13.59;57.85;99806.84;4959829;28;20055;-60
2021/11/07 12:21:58;;;;;;;9.75;5.53;;;;;;;13.33;57.07;99779.78;4959760;29;20061;-60
2021/11/07 12:24:32;;;;;;;10.23;5.50;;;;;;;13.68;57.08;99801.63;4959266;28;20078;-61
2021/11/07 12:27:26;;;;;;;9.02;5.45;;;;;;;13.61;56.37;99794.84;4959647;29;20043;-61
2021/11/07 12:29:58;;;;;;;10.27;6.07;;;;;;;13.48;56.35;99788.19;4959602;28;20130;-60
2021/11/07 12:32:33;;;;;;;8.95;5.75;;;;;;;13.40;56.41;99778.84;4977752;28;20130;-60
2021/11/07 12:35:13;;;;;;;9.57;5.93;;;;;;;13.39;56.79;99782.28;4980720;28;20070;-61
2021/11/07 12:40:47;;;;;;;10.15;5.70;;;;;;;13.42;56.63;99779.69;4959517;28;19921;-61
2021/11/07 12:43:22;;;;;;;12.60;6.07;;;;;;;13.35;56.84;99782.31;4981289;28;20051;-61
2021/11/07 12:45:57;;;;;;;10.65;5.60;;;;;;;13.22;57.24;99766.22;4980869;28;20043;-61
2021/11/07 12:48:43;;;;;;;10.77;6.13;;;;;;;13.16;57.51;99766.28;4980889;28;20521;-61
2021/11/07 12:51:16;;;;;;;9.18;5.78;;;;;;;12.97;58.13;99751.94;4980790;28;20051;-61
2021/11/07 12:54:03;;;;;;;9.43;5.93;;;;;;;13.09;58.21;99762.09;4980820;28;20047;-61
2021/11/07 12:56:40;;;;;;;8.65;5.38;;;;;;;13.23;57.30;99760.25;4980722;28;20050;-61
2021/11/07 12:59:17;;;;;;;9.23;5.57;;;;;;;13.55;57.52;99766.72;4980807;28;20065;-61
2021/11/07 13:02:04;;;;;;;10.25;5.82;;;;;;;13.66;57.10;99767.44;4981028;28;20046;-61
2021/11/07 13:04:43;;;;;;;10.68;6.45;;;;;;;13.58;56.79;99754.72;4980587;28;20053;-61
2021/11/07 13:07:13;;;;;;;9.77;5.28;;;;;;;13.60;56.66;99750.44;4981004;28;20102;-61
2021/11/07 13:09:53;;;;;;;9.55;5.60;;;;;;;13.66;56.61;99749.50;4980635;28;20047;-61